Time;durP1;ratioP1;P1;durP2;ratioP2;P2;SDS_P1;SDS_P2;PMS_P1;PMS_P2;Temp;Humidity;BMP_temperature;BMP_pressure;BME280_temperature;BME280_humidity;BME280_pressure;Samples;Min_cycle;Max_cycle;Signal;HPM_P1;HPM_P2
2022/10/28 00:01:18;;;;;;;10.82;3.22;;;15.60;99.90;;;;;;5042697;28;20036;-71
2022/10/28 00:03:49;;;;;;;12.98;2.97;;;15.60;99.90;;;;;;5076952;28;20103;-70
2022/10/28 00:06:20;;;;;;;11.45;3.03;;;15.60;99.90;;;;;;5076865;28;20022;-70
2022/10/28 00:08:48;;;;;;;10.10;3.20;;;15.60;99.90;;;;;;5077008;28;20028;-70
2022/10/28 00:11:19;;;;;;;6.70;3.30;;;15.60;99.90;;;;;;5077093;28;20021;-71
2022/10/28 00:13:46;;;;;;;6.30;2.55;;;15.50;99.90;;;;;;5076683;28;20096;-71
2022/10/28 00:16:19;;;;;;;9.52;3.65;;;15.50;99.90;;;;;;5076967;28;20031;-70
2022/10/28 00:18:48;;;;;;;5.68;2.90;;;15.40;99.90;;;;;;5076887;28;20040;-71
2022/10/28 00:21:21;;;;;;;6.88;2.90;;;15.40;99.90;;;;;;5077188;28;20021;-71
2022/10/28 00:23:48;;;;;;;10.68;3.78;;;15.40;99.90;;;;;;5076551;28;20025;-71
2022/10/28 00:26:24;;;;;;;9.35;3.28;;;15.30;99.90;;;;;;5076611;28;20108;-71
2022/10/28 00:29:05;;;;;;;9.15;3.22;;;15.30;99.90;;;;;;5077233;28;20347;-70
2022/10/28 00:31:33;;;;;;;6.00;3.17;;;15.20;99.90;;;;;;5076454;28;20332;-71
2022/10/28 00:34:04;;;;;;;7.53;3.53;;;15.10;99.90;;;;;;5076524;28;20105;-71
2022/10/28 00:36:34;;;;;;;5.70;2.83;;;15.10;99.90;;;;;;5076430;28;20024;-71
2022/10/28 00:39:03;;;;;;;12.82;2.85;;;15.10;99.90;;;;;;5076464;28;20025;-70
2022/10/28 00:41:37;;;;;;;8.93;2.45;;;15.10;99.90;;;;;;5076308;28;20032;-70
2022/10/28 00:44:46;;;;;;;6.53;2.90;;;15.10;99.90;;;;;;5076285;28;20428;-71
2022/10/28 00:47:23;;;;;;;15.68;4.50;;;15.10;99.90;;;;;;5055205;28;20044;-71
2022/10/28 00:49:54;;;;;;;13.90;4.25;;;15.00;99.90;;;;;;5076524;28;20404;-71
2022/10/28 00:52:26;;;;;;;10.32;2.97;;;15.00;99.90;;;;;;5076927;28;20028;-70
2022/10/28 00:54:55;;;;;;;6.55;2.83;;;15.00;99.90;;;;;;5076054;28;20028;-71
2022/10/28 00:57:30;;;;;;;9.18;2.97;;;14.90;99.90;;;;;;5076477;28;20029;-70
2022/10/28 01:00:00;;;;;;;9.82;3.08;;;14.90;99.90;;;;;;5076099;28;20025;-70
2022/10/28 01:02:28;;;;;;;11.98;3.88;;;14.90;99.90;;;;;;5076540;28;20410;-70
2022/10/28 01:04:55;;;;;;;8.90;3.30;;;14.90;99.90;;;;;;5059167;28;20028;-70
2022/10/28 01:07:23;;;;;;;12.23;3.38;;;15.00;99.90;;;;;;5076415;28;20029;-70
2022/10/28 01:09:51;;;;;;;13.38;3.00;;;15.00;99.90;;;;;;5076111;28;20021;-70
2022/10/28 01:12:46;;;;;;;9.98;3.05;;;15.10;99.90;;;;;;5076103;28;20036;-71
2022/10/28 01:15:34;;;;;;;9.98;2.90;;;15.20;99.90;;;;;;5075998;28;20021;-71
2022/10/28 01:18:20;;;;;;;8.27;3.65;;;15.20;99.90;;;;;;5065420;28;20079;-71
2022/10/28 01:21:14;;;;;;;9.35;3.30;;;15.20;99.90;;;;;;5058329;28;20028;-71
2022/10/28 01:23:52;;;;;;;8.68;2.92;;;15.10;99.90;;;;;;5061646;28;20037;-71
2022/10/28 01:26:29;;;;;;;7.85;2.83;;;15.10;99.90;;;;;;5079766;28;20050;-70
2022/10/28 01:29:15;;;;;;;15.60;4.63;;;15.10;99.90;;;;;;5079617;28;20423;-71
2022/10/28 01:31:57;;;;;;;8.55;3.17;;;15.10;99.90;;;;;;5080336;28;20025;-71
2022/10/28 01:34:33;;;;;;;12.02;3.78;;;15.10;99.90;;;;;;5079975;28;20401;-71
2022/10/28 01:37:08;;;;;;;7.25;3.35;;;15.10;99.90;;;;;;5079835;28;20024;-70
2022/10/28 01:39:55;;;;;;;8.45;3.08;;;15.20;99.90;;;;;;5080178;28;20358;-70
2022/10/28 01:42:38;;;;;;;6.53;2.75;;;15.10;99.90;;;;;;5079533;28;20103;-71
2022/10/28 01:45:20;;;;;;;38.28;3.78;;;15.10;99.90;;;;;;5079373;28;20373;-70
2022/10/28 01:48:17;;;;;;;7.65;2.97;;;15.20;99.90;;;;;;5079669;28;20021;-70
2022/10/28 01:50:58;;;;;;;;;;;15.10;99.90;;;;;;5071784;28;20059;-71
2022/10/28 01:53:32;;;;;;;8.40;3.22;;;15.10;99.90;;;;;;5079309;28;19950;-70
2022/10/28 01:56:07;;;;;;;4.70;2.85;;;15.10;99.90;;;;;;5079092;28;20048;-70
2022/10/28 01:58:37;;;;;;;10.48;3.53;;;15.00;99.90;;;;;;5079437;28;20032;-70
2022/10/28 02:01:09;;;;;;;9.75;3.72;;;15.00;99.90;;;;;;5079065;28;20032;-70
2022/10/28 02:03:36;;;;;;;7.10;2.65;;;14.90;99.90;;;;;;5079228;28;20033;-70
2022/10/28 02:06:07;;;;;;;12.43;4.03;;;14.90;99.90;;;;;;5061299;28;20085;-70
2022/10/28 02:09:02;;;;;;;12.57;3.55;;;14.80;99.90;;;;;;5079256;28;20028;-71
2022/10/28 02:12:01;;;;;;;9.13;3.05;;;14.80;99.90;;;;;;5078989;28;20020;-70
2022/10/28 02:14:35;;;;;;;5.35;2.97;;;14.80;99.90;;;;;;5078914;28;20048;-70
2022/10/28 02:17:39;;;;;;;14.98;3.70;;;14.80;99.90;;;;;;5079346;28;20092;-71
2022/10/28 02:20:32;;;;;;;11.27;3.35;;;14.70;99.90;;;;;;5078846;28;20029;-70
2022/10/28 02:23:44;;;;;;;13.63;3.83;;;14.80;99.90;;;;;;5079406;28;20085;-71
2022/10/28 02:26:17;;;;;;;11.00;3.53;;;14.90;99.90;;;;;;5072303;28;20083;-71
2022/10/28 02:29:03;;;;;;;6.15;3.17;;;14.90;99.90;;;;;;5079443;28;20021;-71
2022/10/28 02:31:45;;;;;;;11.40;3.10;;;14.90;99.90;;;;;;5077517;28;20040;-71
2022/10/28 02:34:32;;;;;;;11.00;3.17;;;15.00;99.90;;;;;;5079127;28;20420;-71
2022/10/28 02:37:06;;;;;;;12.38;4.43;;;14.90;99.90;;;;;;5060818;28;20051;-71
2022/10/28 02:39:42;;;;;;;8.52;2.92;;;14.90;99.90;;;;;;5079068;28;20409;-70
2022/10/28 02:42:19;;;;;;;;;;;14.90;99.90;;;;;;5078916;28;20424;-70
2022/10/28 02:44:49;;;;;;;7.70;2.85;;;14.90;99.90;;;;;;5078450;28;19904;-71
2022/10/28 02:47:24;;;;;;;10.40;2.95;;;14.90;99.90;;;;;;5078411;28;20055;-70
2022/10/28 02:50:01;;;;;;;10.85;3.20;;;14.90;99.90;;;;;;5060438;28;20025;-70
2022/10/28 02:52:31;;;;;;;7.95;3.38;;;14.90;99.90;;;;;;5078440;28;20420;-71
2022/10/28 02:55:02;;;;;;;10.73;3.55;;;15.00;99.90;;;;;;5077911;28;20367;-71
2022/10/28 02:57:42;;;;;;;8.63;3.25;;;15.00;99.90;;;;;;5078197;28;20032;-70
2022/10/28 03:00:15;;;;;;;13.00;3.63;;;15.00;99.90;;;;;;5060341;28;20025;-70
2022/10/28 03:02:43;;;;;;;8.55;3.00;;;14.90;99.90;;;;;;5078256;28;20020;-70
2022/10/28 03:05:10;;;;;;;12.50;3.25;;;14.90;99.90;;;;;;5078537;28;20024;-71
2022/10/28 03:07:37;;;;;;;11.02;3.42;;;15.00;99.90;;;;;;5078546;28;20028;-71
2022/10/28 03:10:05;;;;;;;10.60;3.10;;;15.00;99.90;;;;;;5060260;28;20028;-70
2022/10/28 03:12:32;;;;;;;10.80;3.58;;;15.00;99.90;;;;;;5078005;28;20016;-70
2022/10/28 03:15:00;;;;;;;8.45;3.42;;;15.00;99.90;;;;;;5077686;28;20050;-70
2022/10/28 03:17:27;;;;;;;7.72;2.83;;;14.90;99.90;;;;;;5077706;28;20130;-70
2022/10/28 03:19:54;;;;;;;11.40;3.13;;;14.90;99.90;;;;;;5077710;28;20031;-71
2022/10/28 03:22:22;;;;;;;8.35;3.13;;;14.90;99.90;;;;;;5077841;28;20109;-71
2022/10/28 03:24:50;;;;;;;12.32;3.00;;;14.90;99.90;;;;;;5077602;28;20025;-70
2022/10/28 03:27:18;;;;;;;7.32;2.92;;;14.90;99.90;;;;;;5059907;28;20119;-70
2022/10/28 03:29:45;;;;;;;6.35;3.10;;;14.80;99.90;;;;;;5077888;28;20024;-71
2022/10/28 03:32:12;;;;;;;8.48;3.97;;;14.80;99.90;;;;;;5077632;28;20016;-70
2022/10/28 03:34:40;;;;;;;11.27;3.15;;;14.80;99.90;;;;;;5077958;28;20027;-70
2022/10/28 03:37:09;;;;;;;9.70;3.40;;;14.80;99.90;;;;;;5077397;28;20016;-70
2022/10/28 03:39:36;;;;;;;8.95;3.38;;;14.90;99.90;;;;;;5077876;28;20032;-70
2022/10/28 03:42:04;;;;;;;6.45;2.67;;;15.00;99.90;;;;;;5077428;28;20051;-70
2022/10/28 03:44:31;;;;;;;8.20;3.13;;;15.10;99.90;;;;;;5077568;28;20363;-70
2022/10/28 03:46:59;;;;;;;10.00;3.03;;;15.20;99.90;;;;;;5077320;28;20024;-70
2022/10/28 03:49:26;;;;;;;8.20;2.70;;;15.30;99.90;;;;;;5077372;28;20067;-71
2022/10/28 03:51:53;;;;;;;10.48;3.55;;;15.40;99.90;;;;;;5077113;28;20021;-71
2022/10/28 03:54:20;;;;;;;7.28;2.88;;;15.50;99.90;;;;;;5077614;28;20025;-71
2022/10/28 03:56:48;;;;;;;10.35;2.60;;;15.50;99.90;;;;;;5076811;28;20048;-70
2022/10/28 03:59:15;;;;;;;6.65;3.15;;;15.50;99.90;;;;;;5077505;28;20028;-71
2022/10/28 04:01:43;;;;;;;8.52;3.00;;;15.60;99.90;;;;;;5075897;28;20024;-70
2022/10/28 04:04:10;;;;;;;9.02;3.10;;;15.60;99.90;;;;;;5077465;28;20028;-70
2022/10/28 04:06:41;;;;;;;7.88;3.15;;;15.70;99.90;;;;;;5077074;28;20095;-71
2022/10/28 04:09:08;;;;;;;10.23;3.58;;;15.70;99.90;;;;;;5077385;28;20035;-70
2022/10/28 04:11:35;;;;;;;9.68;3.30;;;15.70;99.90;;;;;;5076742;28;20028;-71
2022/10/28 04:14:03;;;;;;;6.18;2.75;;;15.70;99.90;;;;;;5076703;28;20027;-71
2022/10/28 04:16:30;;;;;;;13.93;3.55;;;15.60;99.90;;;;;;5058990;28;20109;-70
2022/10/28 04:18:58;;;;;;;9.18;3.50;;;15.70;99.90;;;;;;5077448;28;20393;-70
2022/10/28 04:21:25;;;;;;;10.95;3.47;;;15.60;99.90;;;;;;5059209;28;20028;-70
2022/10/28 04:23:52;;;;;;;11.90;3.70;;;15.60;99.90;;;;;;5076709;28;20052;-70
2022/10/28 04:26:19;;;;;;;12.77;3.35;;;15.60;99.90;;;;;;5076622;28;20027;-71
2022/10/28 04:28:47;;;;;;;9.43;3.53;;;15.70;99.90;;;;;;5077252;28;20031;-70
2022/10/28 04:31:14;;;;;;;11.40;3.13;;;15.60;99.90;;;;;;5076485;28;20017;-70
2022/10/28 04:33:41;;;;;;;11.32;3.15;;;15.60;99.90;;;;;;5076576;28;20075;-71
2022/10/28 04:36:09;;;;;;;11.13;2.88;;;15.60;99.90;;;;;;5075443;28;20028;-71
2022/10/28 04:38:36;;;;;;;11.80;3.92;;;15.60;99.90;;;;;;5076506;28;20017;-71
2022/10/28 04:41:04;;;;;;;10.20;3.75;;;15.60;99.90;;;;;;5076468;28;20115;-71
2022/10/28 04:43:32;;;;;;;6.97;3.58;;;15.60;99.90;;;;;;5076877;28;20016;-71
2022/10/28 04:46:04;;;;;;;13.32;3.30;;;15.60;99.90;;;;;;5076418;28;20021;-71
2022/10/28 04:48:33;;;;;;;10.00;3.28;;;15.50;99.90;;;;;;5077249;28;20069;-70
2022/10/28 04:51:00;;;;;;;5.68;2.88;;;15.50;99.90;;;;;;5076270;28;20028;-71
2022/10/28 04:53:28;;;;;;;10.32;3.03;;;15.40;99.90;;;;;;5076529;28;20020;-70
2022/10/28 04:55:59;;;;;;;8.68;2.65;;;15.30;99.90;;;;;;5076043;28;20049;-70
2022/10/28 04:58:27;;;;;;;7.10;3.17;;;15.30;99.90;;;;;;5078310;28;20021;-71
2022/10/28 05:00:54;;;;;;;10.98;3.53;;;15.30;99.90;;;;;;5080873;28;20020;-71
2022/10/28 05:03:21;;;;;;;8.10;3.20;;;15.20;99.90;;;;;;5080308;28;20050;-71
2022/10/28 05:05:48;;;;;;;9.10;2.95;;;15.20;99.90;;;;;;5063314;28;20020;-70
2022/10/28 05:08:15;;;;;;;13.43;3.92;;;15.20;99.90;;;;;;5080753;28;20028;-71
2022/10/28 05:10:42;;;;;;;10.23;3.67;;;15.20;99.90;;;;;;5062299;28;20029;-71
2022/10/28 05:13:09;;;;;;;9.55;3.30;;;15.20;99.90;;;;;;5080426;28;20078;-70
2022/10/28 05:15:36;;;;;;;9.65;3.70;;;15.10;99.90;;;;;;5080243;28;20290;-71
2022/10/28 05:18:04;;;;;;;8.10;2.95;;;15.10;99.90;;;;;;5062466;28;20017;-70
2022/10/28 05:20:32;;;;;;;9.77;3.25;;;15.10;99.90;;;;;;5080317;28;20024;-71
2022/10/28 05:22:59;;;;;;;7.75;3.03;;;15.10;99.90;;;;;;5080680;28;20025;-71
2022/10/28 05:25:26;;;;;;;13.20;3.45;;;15.20;99.90;;;;;;5062133;28;20032;-71
2022/10/28 05:27:59;;;;;;;10.05;2.85;;;15.20;99.90;;;;;;5080026;28;20355;-71
2022/10/28 05:30:27;;;;;;;12.38;3.22;;;15.30;99.90;;;;;;5061965;28;20029;-71
2022/10/28 05:33:01;;;;;;;12.50;3.13;;;15.30;99.90;;;;;;5079679;28;20070;-71
2022/10/28 05:35:30;;;;;;;8.07;4.00;;;15.40;99.90;;;;;;5062014;28;20021;-71
2022/10/28 05:37:57;;;;;;;12.05;2.72;;;15.50;99.90;;;;;;5080411;28;20024;-71
2022/10/28 05:40:25;;;;;;;11.85;3.38;;;15.50;99.90;;;;;;5080095;28;20108;-71
2022/10/28 05:42:52;;;;;;;6.85;2.47;;;15.50;99.90;;;;;;5080158;28;20020;-71
2022/10/28 05:45:19;;;;;;;5.65;2.42;;;15.60;99.90;;;;;;5079731;28;20447;-71
2022/10/28 05:47:47;;;;;;;12.35;3.42;;;15.60;99.90;;;;;;5062122;28;20306;-71
2022/10/28 05:50:17;;;;;;;9.43;3.10;;;15.50;99.90;;;;;;5078306;28;20515;-71
2022/10/28 05:52:49;;;;;;;11.13;3.00;;;15.50;99.90;;;;;;5079386;28;20024;-71
2022/10/28 05:55:18;;;;;;;11.85;4.20;;;15.40;99.90;;;;;;5078881;28;20424;-71
2022/10/28 05:57:50;;;;;;;13.55;3.30;;;15.30;99.90;;;;;;5078355;28;20435;-71
2022/10/28 06:00:21;;;;;;;12.55;3.13;;;15.20;99.90;;;;;;5078087;28;20409;-72
2022/10/28 06:02:48;;;;;;;9.80;3.40;;;15.20;99.90;;;;;;5060354;28;20052;-70
2022/10/28 06:05:16;;;;;;;13.38;4.18;;;15.10;99.90;;;;;;5078051;28;20021;-71
2022/10/28 06:07:45;;;;;;;10.15;3.17;;;15.00;99.90;;;;;;5078217;28;20020;-71
2022/10/28 06:10:13;;;;;;;10.00;3.22;;;15.00;99.90;;;;;;5077869;28;20020;-71
2022/10/28 06:12:40;;;;;;;10.93;3.03;;;15.00;99.90;;;;;;5077994;28;20028;-71
2022/10/28 06:15:08;;;;;;;11.10;3.22;;;15.00;99.90;;;;;;5077838;28;20477;-71
2022/10/28 06:17:35;;;;;;;10.20;3.67;;;15.00;99.90;;;;;;5077798;28;20061;-71
2022/10/28 06:20:02;;;;;;;7.00;2.80;;;15.00;99.90;;;;;;5060014;28;20028;-71
2022/10/28 06:22:30;;;;;;;12.10;3.00;;;15.00;99.90;;;;;;5077998;28;20376;-71
2022/10/28 06:24:58;;;;;;;8.27;2.85;;;14.90;99.90;;;;;;5077775;28;20111;-74
2022/10/28 06:27:25;;;;;;;9.15;2.67;;;14.90;99.90;;;;;;5078269;28;20107;-72
2022/10/28 06:29:53;;;;;;;10.43;3.65;;;14.90;99.90;;;;;;5077788;28;20067;-74
2022/10/28 06:32:20;;;;;;;11.43;2.95;;;14.90;99.90;;;;;;5077799;28;20035;-75
2022/10/28 06:34:48;;;;;;;8.18;3.13;;;14.90;99.90;;;;;;5077585;28;20021;-74
2022/10/28 06:37:16;;;;;;;13.77;3.50;;;14.90;99.90;;;;;;5077594;28;20028;-75
2022/10/28 06:39:44;;;;;;;7.65;2.92;;;15.10;99.90;;;;;;5078024;28;20032;-75
2022/10/28 06:42:11;;;;;;;6.15;2.60;;;15.20;99.90;;;;;;5077870;28;20024;-75
2022/10/28 06:44:39;;;;;;;7.47;3.15;;;15.30;99.90;;;;;;5077347;28;20021;-74
2022/10/28 06:47:06;;;;;;;10.25;3.58;;;15.40;99.90;;;;;;5077703;28;20052;-74
2022/10/28 06:49:34;;;;;;;12.73;3.55;;;15.50;99.90;;;;;;5077244;28;20023;-76
2022/10/28 06:52:01;;;;;;;11.88;3.13;;;15.60;99.90;;;;;;5077446;28;20024;-74
2022/10/28 06:54:29;;;;;;;10.13;3.55;;;15.70;99.90;;;;;;5077296;28;20021;-76
2022/10/28 06:56:56;;;;;;;9.38;3.92;;;15.70;99.90;;;;;;4969547;28;2499907;-75
2022/10/28 06:59:24;;;;;;;10.93;3.33;;;15.70;99.90;;;;;;5058285;28;20417;-74
2022/10/28 07:01:52;;;;;;;11.23;3.35;;;15.80;99.90;;;;;;5058872;28;20027;-74
2022/10/28 07:04:19;;;;;;;6.05;3.25;;;15.90;99.90;;;;;;5058112;28;20063;-73
2022/10/28 07:06:46;;;;;;;10.93;2.95;;;16.00;99.90;;;;;;5058590;28;20353;-74
2022/10/28 07:09:14;;;;;;;8.98;2.95;;;16.10;99.90;;;;;;5058537;28;20404;-74
2022/10/28 07:11:43;;;;;;;9.20;3.22;;;16.20;99.90;;;;;;5058032;28;20436;-74
2022/10/28 07:14:11;;;;;;;9.73;2.90;;;16.30;99.90;;;;;;5058290;28;20431;-74
2022/10/28 07:16:38;;;;;;;8.63;3.60;;;16.40;99.90;;;;;;5058398;28;20021;-74
2022/10/28 07:19:05;;;;;;;10.75;3.05;;;16.40;99.90;;;;;;5058324;28;20024;-77
2022/10/28 07:21:36;;;;;;;8.82;2.83;;;16.40;99.90;;;;;;5056991;28;20103;-77
2022/10/28 07:24:03;;;;;;;7.57;2.72;;;16.50;99.90;;;;;;5057675;28;20048;-75
2022/10/28 07:26:31;;;;;;;10.57;3.30;;;16.50;99.90;;;;;;5058194;28;20028;-74
2022/10/28 07:28:58;;;;;;;9.35;2.85;;;16.60;99.90;;;;;;5058071;28;20421;-72
2022/10/28 07:31:26;;;;;;;14.32;3.42;;;16.70;99.90;;;;;;5056376;28;20029;-71
2022/10/28 07:33:54;;;;;;;13.35;3.85;;;16.80;99.90;;;;;;5058014;28;20021;-71
2022/10/28 07:36:21;;;;;;;7.68;2.60;;;16.90;99.90;;;;;;5057968;28;20017;-73
2022/10/28 07:38:52;;;;;;;12.35;3.33;;;17.00;99.90;;;;;;5058126;28;20021;-71
2022/10/28 07:41:21;;;;;;;4.53;2.60;;;17.20;99.90;;;;;;5057334;28;20042;-71
2022/10/28 07:43:49;;;;;;;13.25;3.40;;;17.30;99.90;;;;;;5057228;28;20033;-71
2022/10/28 07:46:18;;;;;;;11.75;2.50;;;17.40;99.90;;;;;;5057499;28;20075;-72
2022/10/28 07:48:46;;;;;;;8.80;3.40;;;17.40;99.90;;;;;;5057317;28;20029;-72
2022/10/28 07:51:14;;;;;;;10.93;3.17;;;17.50;99.90;;;;;;5057635;28;20523;-72
2022/10/28 07:53:42;;;;;;;10.32;2.88;;;17.50;99.90;;;;;;5057390;28;20360;-72
2022/10/28 07:56:14;;;;;;;7.32;2.60;;;17.50;99.90;;;;;;5067710;28;20037;-72
2022/10/28 07:58:44;;;;;;;8.55;2.75;;;17.50;99.90;;;;;;5077677;28;20036;-72
2022/10/28 08:01:15;;;;;;;13.07;3.05;;;17.60;99.90;;;;;;5076913;28;20435;-72
2022/10/28 08:03:43;;;;;;;5.95;2.60;;;17.60;99.90;;;;;;5076956;28;20370;-72
2022/10/28 08:06:16;;;;;;;8.63;2.55;;;17.60;99.90;;;;;;5076827;28;20031;-73
2022/10/28 08:08:45;;;;;;;9.05;3.05;;;17.50;99.90;;;;;;5076963;28;20056;-72
2022/10/28 08:11:18;;;;;;;9.93;3.28;;;17.50;99.90;;;;;;5077304;28;20313;-72
2022/10/28 08:13:46;;;;;;;8.27;2.67;;;17.40;99.90;;;;;;5076848;28;20052;-71
2022/10/28 08:16:14;;;;;;;15.07;3.22;;;17.40;99.90;;;;;;5077312;28;20023;-71
2022/10/28 08:18:42;;;;;;;7.20;2.72;;;17.40;99.90;;;;;;5076883;28;20074;-73
2022/10/28 08:21:11;;;;;;;10.48;2.90;;;17.50;99.90;;;;;;5076717;28;20328;-71
2022/10/28 08:23:38;;;;;;;9.60;2.58;;;17.50;99.90;;;;;;5076737;28;20021;-79
2022/10/28 08:26:05;;;;;;;10.88;3.13;;;17.60;99.90;;;;;;5077223;28;20078;-72
2022/10/28 08:28:32;;;;;;;11.82;3.20;;;17.60;99.90;;;;;;5077404;28;20024;-70
2022/10/28 08:31:02;;;;;;;7.32;2.25;;;17.70;99.90;;;;;;5076985;28;20099;-74
2022/10/28 08:33:31;;;;;;;9.20;2.88;;;17.80;99.90;;;;;;5076721;28;20412;-73
2022/10/28 08:35:59;;;;;;;11.48;2.80;;;17.90;99.90;;;;;;5076836;28;20424;-72
2022/10/28 08:38:27;;;;;;;10.50;2.95;;;17.90;99.90;;;;;;5077229;28;20048;-72
2022/10/28 08:41:15;;;;;;;19.05;3.90;;;18.00;99.90;;;;;;5076730;28;20373;-74
2022/10/28 08:44:01;;;;;;;19.85;3.17;;;18.10;99.90;;;;;;5076791;28;20024;-74
2022/10/28 08:46:50;;;;;;;10.40;2.65;;;18.10;99.90;;;;;;5076462;28;20017;-73
2022/10/28 08:49:21;;;;;;;9.40;3.05;;;18.20;99.90;;;;;;5076675;28;20497;-73
2022/10/28 08:52:19;;;;;;;10.98;3.10;;;18.20;99.90;;;;;;5076369;28;20390;-72
2022/10/28 08:55:06;;;;;;;14.75;3.42;;;18.30;99.90;;;;;;5076635;28;20316;-74
2022/10/28 08:57:51;;;;;;;7.53;2.85;;;18.40;99.90;;;;;;5076321;28;20439;-75
2022/10/28 09:00:26;;;;;;;13.77;3.30;;;18.50;99.90;;;;;;5076277;28;20471;-75
2022/10/28 09:03:03;;;;;;;7.20;2.92;;;18.50;99.90;;;;;;5076868;28;20285;-74
2022/10/28 09:05:31;;;;;;;8.32;2.90;;;18.60;99.90;;;;;;5076532;28;20312;-75
2022/10/28 09:08:02;;;;;;;15.80;2.70;;;18.70;99.90;;;;;;5076717;28;20070;-72
2022/10/28 09:10:55;;;;;;;13.65;3.30;;;18.70;99.90;;;;;;5076147;28;20102;-74
2022/10/28 09:13:45;;;;;;;10.45;2.70;;;18.80;99.90;;;;;;5076784;28;20017;-72
2022/10/28 09:16:52;;;;;;;14.18;3.20;;;18.90;99.90;;;;;;5076071;28;20020;-71
2022/10/28 09:19:36;;;;;;;14.07;3.17;;;18.90;99.90;;;;;;5042955;28;20033;-72
2022/10/28 09:22:24;;;;;;;8.70;2.92;;;18.80;99.90;;;;;;5076167;28;20028;-73
2022/10/28 09:25:01;;;;;;;12.02;2.83;;;18.90;99.90;;;;;;5076363;28;20373;-73
2022/10/28 09:27:48;;;;;;;14.68;3.30;;;19.00;99.90;;;;;;5076213;28;20027;-73
2022/10/28 09:30:34;;;;;;;8.20;2.75;;;19.10;99.90;;;;;;5076163;28;20485;-73
2022/10/28 09:33:11;;;;;;;15.07;2.65;;;19.20;99.90;;;;;;5076057;28;20029;-73
2022/10/28 09:35:46;;;;;;;22.58;3.30;;;19.20;99.90;;;;;;5076539;28;20025;-73
2022/10/28 09:38:39;;;;;;;7.28;3.40;;;19.30;99.90;;;;;;5058299;28;20017;-73
2022/10/28 09:41:23;;;;;;;5.20;2.20;;;19.40;99.90;;;;;;5076457;28;20031;-71
2022/10/28 09:44:06;;;;;;;22.52;3.38;;;19.50;99.90;;;;;;5076521;28;20104;-73
2022/10/28 09:46:36;;;;;;;14.68;2.55;;;19.60;99.90;;;;;;5079556;28;20103;-71
2022/10/28 09:49:12;;;;;;;15.00;3.40;;;19.70;99.90;;;;;;5079512;28;20021;-72
2022/10/28 09:52:13;;;;;;;17.30;3.00;;;19.70;99.90;;;;;;5061663;28;20021;-72
2022/10/28 09:54:48;;;;;;;11.02;3.03;;;19.80;99.90;;;;;;5079414;28;20107;-72
2022/10/28 09:57:16;;;;;;;13.32;3.00;;;19.90;99.90;;;;;;5079365;28;20040;-72
2022/10/28 09:59:44;;;;;;;13.93;2.53;;;19.90;99.90;;;;;;5079255;28;20067;-72
2022/10/28 10:02:28;;;;;;;16.85;3.08;;;19.90;99.90;;;;;;5079263;28;20021;-73
2022/10/28 10:04:57;;;;;;;9.07;3.20;;;20.00;99.90;;;;;;5079490;28;20443;-72
2022/10/28 10:07:36;;;;;;;8.98;2.72;;;20.10;99.90;;;;;;5079895;28;20032;-71
2022/10/28 10:10:22;;;;;;;9.25;2.42;;;20.10;99.90;;;;;;5079225;28;20032;-71
2022/10/28 10:12:51;;;;;;;11.48;3.20;;;20.10;99.90;;;;;;5079682;28;20020;-73
2022/10/28 10:15:47;;;;;;;11.10;3.08;;;20.10;99.90;;;;;;5078951;28;20021;-73
2022/10/28 10:18:33;;;;;;;13.15;2.90;;;20.20;99.90;;;;;;5059772;28;20033;-72
2022/10/28 10:21:01;;;;;;;9.30;2.75;;;20.20;99.90;;;;;;5078977;28;20129;-72
2022/10/28 10:23:31;;;;;;;13.80;3.50;;;20.30;99.90;;;;;;5078954;28;20025;-72
2022/10/28 10:26:09;;;;;;;9.18;2.67;;;20.30;99.90;;;;;;5078875;28;20025;-72
2022/10/28 10:28:46;;;;;;;11.75;3.17;;;20.40;99.90;;;;;;5079547;28;20032;-71
2022/10/28 10:31:20;;;;;;;9.70;2.53;;;20.40;99.90;;;;;;5078615;28;20024;-72
2022/10/28 10:33:55;;;;;;;9.80;2.60;;;20.40;99.90;;;;;;5078727;28;20024;-71
2022/10/28 10:36:27;;;;;;;12.02;2.72;;;20.40;99.90;;;;;;5060879;28;20017;-72
2022/10/28 10:38:57;;;;;;;9.50;2.20;;;20.40;99.90;;;;;;5078369;28;20032;-72
2022/10/28 10:41:43;;;;;;;13.68;3.47;;;20.40;99.90;;;;;;5078578;28;20025;-72
2022/10/28 10:44:24;;;;;;;10.45;3.05;;;20.50;99.90;;;;;;5078339;28;20024;-71
2022/10/28 10:47:16;;;;;;;11.43;3.03;;;20.50;99.90;;;;;;5078492;28;20032;-71
2022/10/28 10:49:43;;;;;;;9.45;2.92;;;20.50;99.90;;;;;;5078872;28;20067;-71
2022/10/28 10:52:22;;;;;;;10.85;2.50;;;20.60;99.90;;;;;;5078561;28;20086;-71
2022/10/28 10:55:07;;;;;;;14.27;3.05;;;20.60;99.90;;;;;;5078453;28;20028;-71
2022/10/28 10:57:35;;;;;;;12.77;2.28;;;20.70;99.90;;;;;;5077788;28;20068;-71
2022/10/28 11:00:04;;;;;;;6.85;2.25;;;20.60;99.90;;;;;;5078433;28;20031;-71
2022/10/28 11:02:40;;;;;;;8.40;2.78;;;20.70;99.90;;;;;;5078339;28;20021;-72
2022/10/28 11:05:19;;;;;;;10.18;2.70;;;20.80;99.90;;;;;;5078676;28;20400;-72
2022/10/28 11:07:49;;;;;;;12.68;2.40;;;20.80;99.90;;;;;;5078084;28;20021;-71
2022/10/28 11:10:26;;;;;;;12.52;2.70;;;21.00;99.90;;;;;;5078814;28;20036;-71
2022/10/28 11:12:56;;;;;;;10.55;2.80;;;21.10;99.90;;;;;;5078106;28;20416;-71
2022/10/28 11:15:27;;;;;;;6.32;2.15;;;21.20;99.90;;;;;;5078358;28;20021;-71
2022/10/28 11:18:19;;;;;;;7.47;2.60;;;21.20;99.90;;;;;;5078120;28;20020;-72
2022/10/28 11:21:03;;;;;;;10.07;3.03;;;21.30;99.90;;;;;;5077779;28;20028;-73
2022/10/28 11:23:52;;;;;;;14.77;2.72;;;21.40;99.90;;;;;;5076815;28;20115;-73
2022/10/28 11:26:21;;;;;;;9.77;2.60;;;21.40;99.90;;;;;;5078209;28;20047;-72
2022/10/28 11:28:56;;;;;;;15.32;3.85;;;21.40;99.90;;;;;;5059881;28;20107;-72
2022/10/28 11:31:43;;;;;;;13.38;2.55;;;21.50;99.90;;;;;;5078011;28;20103;-72
2022/10/28 11:34:34;;;;;;;13.23;2.88;;;21.60;99.90;;;;;;5077726;28;20024;-71
2022/10/28 11:37:28;;;;;;;19.58;2.78;;;21.70;99.90;;;;;;5077506;28;20092;-71
2022/10/28 11:40:20;;;;;;;12.57;2.22;;;21.80;99.90;;;;;;5059676;28;20020;-72
2022/10/28 11:43:26;;;;;;;6.72;2.33;;;21.90;99.90;;;;;;5078023;28;20016;-71
2022/10/28 11:46:31;;;;;;;11.25;2.20;;;22.00;99.90;;;;;;5077516;28;20032;-71
2022/10/28 11:49:13;;;;;;;7.63;2.20;;;22.00;99.90;;;;;;5059524;28;20029;-71
2022/10/28 11:52:06;;;;;;;9.65;2.38;;;22.00;99.90;;;;;;5077664;28;20356;-71
2022/10/28 11:55:18;;;;;;;11.75;2.72;;;22.00;99.90;;;;;;5077385;28;20021;-71
2022/10/28 11:58:12;;;;;;;7.05;2.30;;;22.00;99.90;;;;;;5077089;28;20040;-71
2022/10/28 12:01:16;;;;;;;7.50;2.22;;;22.10;99.90;;;;;;5076888;28;20035;-71
2022/10/28 12:04:00;;;;;;;9.10;2.20;;;22.10;99.90;;;;;;5074501;28;20032;-71
2022/10/28 12:06:56;;;;;;;9.25;2.33;;;22.20;99.90;;;;;;5058788;28;20021;-71
2022/10/28 12:09:45;;;;;;;15.65;3.20;;;22.30;99.90;;;;;;5077192;28;20021;-71
2022/10/28 12:12:27;;;;;;;8.07;2.63;;;22.30;99.90;;;;;;5077298;28;20416;-71
2022/10/28 12:15:25;;;;;;;12.13;2.20;;;22.30;99.90;;;;;;5076745;28;20020;-71
2022/10/28 12:18:14;;;;;;;9.77;2.75;;;22.30;99.90;;;;;;5077320;28;20101;-71
2022/10/28 12:20:56;;;;;;;12.63;3.05;;;22.20;99.90;;;;;;5059061;28;20324;-71
2022/10/28 12:23:25;;;;;;;12.25;2.75;;;22.20;99.90;;;;;;5077444;28;20055;-72
2022/10/28 12:25:58;;;;;;;7.43;2.45;;;22.20;99.90;;;;;;5076652;28;20085;-71
2022/10/28 12:28:57;;;;;;;12.63;3.55;;;22.10;99.90;;;;;;5077262;28;20099;-71
2022/10/28 12:31:47;;;;;;;16.92;3.13;;;22.00;99.90;;;;;;5064502;28;20119;-71
2022/10/28 12:34:23;;;;;;;15.13;3.17;;;22.00;99.90;;;;;;5076539;28;20413;-71
2022/10/28 12:37:00;;;;;;;11.77;2.90;;;22.00;99.90;;;;;;5076508;28;20024;-71
2022/10/28 12:40:04;;;;;;;8.23;3.25;;;21.90;99.90;;;;;;5058769;28;20032;-71
2022/10/28 12:42:38;;;;;;;10.23;3.67;;;21.90;99.90;;;;;;5077207;28;20024;-71
2022/10/28 12:45:12;;;;;;;13.32;3.83;;;21.90;99.90;;;;;;5076464;28;20048;-71
2022/10/28 12:48:15;;;;;;;14.43;2.92;;;21.90;99.90;;;;;;5076441;28;20028;-71
2022/10/28 12:50:58;;;;;;;7.90;2.85;;;21.90;99.90;;;;;;5076904;28;20104;-71
2022/10/28 12:53:41;;;;;;;10.02;2.60;;;21.90;99.90;;;;;;5076590;28;20017;-71
2022/10/28 12:56:36;;;;;;;11.80;3.40;;;21.90;99.90;;;;;;5076460;28;20051;-71
2022/10/28 12:59:28;;;;;;;14.57;2.80;;;21.90;99.90;;;;;;5070146;28;20032;-72
2022/10/28 13:01:59;;;;;;;11.57;2.95;;;22.00;99.90;;;;;;5076319;28;20111;-71
2022/10/28 13:04:30;;;;;;;6.93;2.50;;;22.00;99.90;;;;;;5076092;28;20032;-71
2022/10/28 13:07:23;;;;;;;9.80;2.63;;;22.00;99.90;;;;;;5076806;28;20024;-71
2022/10/28 13:10:06;;;;;;;16.25;3.35;;;21.90;99.90;;;;;;5076190;28;20032;-71
2022/10/28 13:12:54;;;;;;;8.95;2.50;;;21.90;99.90;;;;;;5076959;28;20016;-71
2022/10/28 13:16:06;;;;;;;21.60;3.20;;;21.90;99.90;;;;;;5058405;28;20021;-71
2022/10/28 13:19:10;;;;;;;10.70;2.83;;;21.90;99.90;;;;;;5073341;28;20068;-71
2022/10/28 13:22:13;;;;;;;18.58;3.10;;;21.90;99.90;;;;;;5080841;28;20016;-71
2022/10/28 13:25:00;;;;;;;14.00;2.78;;;21.90;99.90;;;;;;5080293;28;20063;-71